Archival Weather

Phoenix Sky Harbor Intl

Phoenix, Arizona (KPHX)

Report from: Thursday, December 7, 2023 2:51 PM MST
Current time: Monday, July 22, 2024 4:53 AM MST

Current weather – Weather history – Daily summaries
Weather forecast

Temperature24.4°C (75.9°F)
Dew point0.6°C (33.1°F)
Winds Calm
Visibility10 mi. (16.1 km)
Clouds Few clouds 18,000 ft. (5,486 m)
Few clouds 25,000 ft. (7,620 m)
Altimeter29.90 in.Hg (1013 mB)
Relative humidity21 %
Density altitude1,256 ft. (383 m)
Sea-level pressure101.1 kPa (1011 mB, 29.86 in.Hg)
Remarks Automated weather observing station with precipitation discriminator
Flight conditions Visual Meteorological Conditions
Raw dataKPHX 072151Z 00000KT 10SM FEW180 FEW250 24/01 A2990 RMK AO2 SLP113 T02440006
An error has occurred. This application may no longer respond until reloaded. Reload 🗙